sensor_id;sensor_type;location;lat;lon;timestamp;temperature;humidity
23124;DHT22;11731;48.592;8.858;2022-10-18T00:02:04;15.50;99.90
23124;DHT22;11731;48.592;8.858;2022-10-18T00:04:31;15.50;99.90
23124;DHT22;11731;48.592;8.858;2022-10-18T00:06:59;15.50;99.90
23124;DHT22;11731;48.592;8.858;2022-10-18T00:09:26;15.50;99.90
23124;DHT22;11731;48.592;8.858;2022-10-18T00:11:53;15.50;99.90
23124;DHT22;11731;48.592;8.858;2022-10-18T00:14:19;15.50;99.90
23124;DHT22;11731;48.592;8.858;2022-10-18T00:16:48;15.40;99.90
23124;DHT22;11731;48.592;8.858;2022-10-18T00:19:15;15.40;99.90
23124;DHT22;11731;48.592;8.858;2022-10-18T00:21:43;15.30;99.90
23124;DHT22;11731;48.592;8.858;2022-10-18T00:24:09;15.10;99.90
23124;DHT22;11731;48.592;8.858;2022-10-18T00:26:36;15.20;99.90
23124;DHT22;11731;48.592;8.858;2022-10-18T00:29:04;15.20;99.90
23124;DHT22;11731;48.592;8.858;2022-10-18T00:31:33;15.00;99.90
23124;DHT22;11731;48.592;8.858;2022-10-18T00:34:04;14.80;99.90
23124;DHT22;11731;48.592;8.858;2022-10-18T00:36:32;14.90;99.90
23124;DHT22;11731;48.592;8.858;2022-10-18T00:38:59;15.00;99.90
23124;DHT22;11731;48.592;8.858;2022-10-18T00:41:29;15.00;99.90
23124;DHT22;11731;48.592;8.858;2022-10-18T00:43:57;15.20;99.90
23124;DHT22;11731;48.592;8.858;2022-10-18T00:46:27;15.10;99.90
23124;DHT22;11731;48.592;8.858;2022-10-18T00:48:55;14.90;99.90
23124;DHT22;11731;48.592;8.858;2022-10-18T00:51:40;14.90;99.90
23124;DHT22;11731;48.592;8.858;2022-10-18T00:54:08;15.00;99.90
23124;DHT22;11731;48.592;8.858;2022-10-18T00:56:36;15.00;99.90
23124;DHT22;11731;48.592;8.858;2022-10-18T00:59:03;15.10;99.90
23124;DHT22;11731;48.592;8.858;2022-10-18T01:01:30;15.00;99.90
23124;DHT22;11731;48.592;8.858;2022-10-18T01:03:57;15.10;99.90
23124;DHT22;11731;48.592;8.858;2022-10-18T01:06:26;15.10;99.90
23124;DHT22;11731;48.592;8.858;2022-10-18T01:09:09;15.30;99.90
23124;DHT22;11731;48.592;8.858;2022-10-18T01:11:54;15.40;99.90
23124;DHT22;11731;48.592;8.858;2022-10-18T01:14:33;15.60;99.90
23124;DHT22;11731;48.592;8.858;2022-10-18T01:17:04;15.60;99.90
23124;DHT22;11731;48.592;8.858;2022-10-18T01:19:50;15.80;99.90
23124;DHT22;11731;48.592;8.858;2022-10-18T01:22:23;15.80;99.90
23124;DHT22;11731;48.592;8.858;2022-10-18T01:25:01;15.90;99.90
23124;DHT22;11731;48.592;8.858;2022-10-18T01:27:43;15.80;99.90
23124;DHT22;11731;48.592;8.858;2022-10-18T01:30:39;15.70;99.90
23124;DHT22;11731;48.592;8.858;2022-10-18T01:33:22;15.70;99.90
23124;DHT22;11731;48.592;8.858;2022-10-18T01:35:55;15.80;99.90
23124;DHT22;11731;48.592;8.858;2022-10-18T01:38:24;15.70;99.90
23124;DHT22;11731;48.592;8.858;2022-10-18T01:40:52;15.90;99.90
23124;DHT22;11731;48.592;8.858;2022-10-18T01:43:22;16.00;99.90
23124;DHT22;11731;48.592;8.858;2022-10-18T01:45:52;15.90;99.90
23124;DHT22;11731;48.592;8.858;2022-10-18T01:48:20;15.90;99.90
23124;DHT22;11731;48.592;8.858;2022-10-18T01:50:47;16.00;99.90
23124;DHT22;11731;48.592;8.858;2022-10-18T01:53:25;16.30;99.90
23124;DHT22;11731;48.592;8.858;2022-10-18T01:58:43;16.40;99.90
23124;DHT22;11731;48.592;8.858;2022-10-18T02:01:18;16.40;99.90
23124;DHT22;11731;48.592;8.858;2022-10-18T02:03:47;16.50;99.90
23124;DHT22;11731;48.592;8.858;2022-10-18T02:06:20;16.40;99.90
23124;DHT22;11731;48.592;8.858;2022-10-18T02:08:52;16.40;99.90
23124;DHT22;11731;48.592;8.858;2022-10-18T02:11:20;16.50;99.90
23124;DHT22;11731;48.592;8.858;2022-10-18T02:13:51;16.50;99.90
23124;DHT22;11731;48.592;8.858;2022-10-18T02:16:23;16.70;99.90
23124;DHT22;11731;48.592;8.858;2022-10-18T02:18:56;16.80;99.90
23124;DHT22;11731;48.592;8.858;2022-10-18T02:21:24;16.80;99.90
23124;DHT22;11731;48.592;8.858;2022-10-18T02:23:54;16.60;99.90
23124;DHT22;11731;48.592;8.858;2022-10-18T02:26:21;16.50;99.90
23124;DHT22;11731;48.592;8.858;2022-10-18T02:28:48;16.60;99.90
23124;DHT22;11731;48.592;8.858;2022-10-18T02:31:18;16.40;99.90
23124;DHT22;11731;48.592;8.858;2022-10-18T02:33:52;16.10;99.90
23124;DHT22;11731;48.592;8.858;2022-10-18T02:36:23;15.90;99.90
23124;DHT22;11731;48.592;8.858;2022-10-18T02:38:53;16.00;99.90
23124;DHT22;11731;48.592;8.858;2022-10-18T02:41:23;15.90;99.90
23124;DHT22;11731;48.592;8.858;2022-10-18T02:43:50;15.90;99.90
23124;DHT22;11731;48.592;8.858;2022-10-18T02:46:17;15.60;99.90
23124;DHT22;11731;48.592;8.858;2022-10-18T02:48:44;15.60;99.90
23124;DHT22;11731;48.592;8.858;2022-10-18T02:51:12;15.70;99.90
23124;DHT22;11731;48.592;8.858;2022-10-18T02:53:39;15.80;99.90
23124;DHT22;11731;48.592;8.858;2022-10-18T02:56:06;15.80;99.90
23124;DHT22;11731;48.592;8.858;2022-10-18T02:58:33;15.80;99.90
23124;DHT22;11731;48.592;8.858;2022-10-18T03:01:00;15.70;99.90
23124;DHT22;11731;48.592;8.858;2022-10-18T03:03:27;15.70;99.90
23124;DHT22;11731;48.592;8.858;2022-10-18T03:05:54;15.50;99.90
23124;DHT22;11731;48.592;8.858;2022-10-18T03:08:25;15.40;99.90
23124;DHT22;11731;48.592;8.858;2022-10-18T03:10:52;15.40;99.90
23124;DHT22;11731;48.592;8.858;2022-10-18T03:13:19;15.30;99.90
23124;DHT22;11731;48.592;8.858;2022-10-18T03:15:46;15.50;99.90
23124;DHT22;11731;48.592;8.858;2022-10-18T03:18:13;15.40;99.90
23124;DHT22;11731;48.592;8.858;2022-10-18T03:20:40;15.40;99.90
23124;DHT22;11731;48.592;8.858;2022-10-18T03:23:07;15.30;99.90
23124;DHT22;11731;48.592;8.858;2022-10-18T03:25:36;15.40;99.90
23124;DHT22;11731;48.592;8.858;2022-10-18T03:28:03;15.50;99.90
23124;DHT22;11731;48.592;8.858;2022-10-18T03:30:30;15.50;99.90
23124;DHT22;11731;48.592;8.858;2022-10-18T03:32:57;15.70;99.90
23124;DHT22;11731;48.592;8.858;2022-10-18T03:35:24;15.90;99.90
23124;DHT22;11731;48.592;8.858;2022-10-18T03:37:53;15.80;99.90
23124;DHT22;11731;48.592;8.858;2022-10-18T03:40:20;15.90;99.90
23124;DHT22;11731;48.592;8.858;2022-10-18T03:42:48;15.90;99.90
23124;DHT22;11731;48.592;8.858;2022-10-18T03:45:15;15.90;99.90
23124;DHT22;11731;48.592;8.858;2022-10-18T03:47:42;15.90;99.90
23124;DHT22;11731;48.592;8.858;2022-10-18T03:50:09;15.80;99.90
23124;DHT22;11731;48.592;8.858;2022-10-18T03:52:36;15.80;99.90
23124;DHT22;11731;48.592;8.858;2022-10-18T03:55:03;15.80;99.90
23124;DHT22;11731;48.592;8.858;2022-10-18T03:57:30;15.70;99.90
23124;DHT22;11731;48.592;8.858;2022-10-18T03:59:58;15.70;99.90
23124;DHT22;11731;48.592;8.858;2022-10-18T04:02:25;15.70;99.90
23124;DHT22;11731;48.592;8.858;2022-10-18T04:04:52;15.80;99.90
23124;DHT22;11731;48.592;8.858;2022-10-18T04:07:19;15.80;99.90
23124;DHT22;11731;48.592;8.858;2022-10-18T04:09:46;15.70;99.90
23124;DHT22;11731;48.592;8.858;2022-10-18T04:12:13;15.30;99.90
23124;DHT22;11731;48.592;8.858;2022-10-18T04:14:40;14.90;99.90
23124;DHT22;11731;48.592;8.858;2022-10-18T04:17:08;14.80;99.90
23124;DHT22;11731;48.592;8.858;2022-10-18T04:19:35;14.90;99.90
23124;DHT22;11731;48.592;8.858;2022-10-18T04:22:01;14.70;99.90
23124;DHT22;11731;48.592;8.858;2022-10-18T04:24:28;15.00;99.90
23124;DHT22;11731;48.592;8.858;2022-10-18T04:26:55;15.00;99.90
23124;DHT22;11731;48.592;8.858;2022-10-18T04:29:22;15.10;99.90
23124;DHT22;11731;48.592;8.858;2022-10-18T04:31:49;15.20;99.90
23124;DHT22;11731;48.592;8.858;2022-10-18T04:34:17;15.10;99.90
23124;DHT22;11731;48.592;8.858;2022-10-18T04:36:44;15.10;99.90
23124;DHT22;11731;48.592;8.858;2022-10-18T04:39:11;15.10;99.90
23124;DHT22;11731;48.592;8.858;2022-10-18T04:41:38;15.20;99.90
23124;DHT22;11731;48.592;8.858;2022-10-18T04:44:05;15.30;99.90
23124;DHT22;11731;48.592;8.858;2022-10-18T04:46:32;15.30;99.90
23124;DHT22;11731;48.592;8.858;2022-10-18T04:48:59;15.30;99.90
23124;DHT22;11731;48.592;8.858;2022-10-18T04:51:27;15.20;99.90
23124;DHT22;11731;48.592;8.858;2022-10-18T04:53:54;14.90;99.90
23124;DHT22;11731;48.592;8.858;2022-10-18T04:56:22;15.00;99.90
23124;DHT22;11731;48.592;8.858;2022-10-18T04:58:48;15.20;99.90
23124;DHT22;11731;48.592;8.858;2022-10-18T05:01:15;15.30;99.90
23124;DHT22;11731;48.592;8.858;2022-10-18T05:03:43;15.40;99.90
23124;DHT22;11731;48.592;8.858;2022-10-18T05:06:10;15.50;99.90
23124;DHT22;11731;48.592;8.858;2022-10-18T05:08:38;15.50;99.90
23124;DHT22;11731;48.592;8.858;2022-10-18T05:11:05;15.50;99.90
23124;DHT22;11731;48.592;8.858;2022-10-18T05:13:32;15.50;99.90
23124;DHT22;11731;48.592;8.858;2022-10-18T05:16:08;15.50;99.90
23124;DHT22;11731;48.592;8.858;2022-10-18T05:18:35;15.50;99.90
23124;DHT22;11731;48.592;8.858;2022-10-18T05:21:02;15.30;99.90
23124;DHT22;11731;48.592;8.858;2022-10-18T05:23:29;15.30;99.90
23124;DHT22;11731;48.592;8.858;2022-10-18T05:26:01;15.20;99.90
23124;DHT22;11731;48.592;8.858;2022-10-18T05:28:29;15.10;99.90
23124;DHT22;11731;48.592;8.858;2022-10-18T05:30:59;15.00;99.90
23124;DHT22;11731;48.592;8.858;2022-10-18T05:33:27;15.00;99.90
23124;DHT22;11731;48.592;8.858;2022-10-18T05:35:54;15.00;99.90
23124;DHT22;11731;48.592;8.858;2022-10-18T05:38:20;15.10;99.90
23124;DHT22;11731;48.592;8.858;2022-10-18T05:40:47;15.00;99.90
23124;DHT22;11731;48.592;8.858;2022-10-18T05:43:16;15.00;99.90
23124;DHT22;11731;48.592;8.858;2022-10-18T05:45:47;14.90;99.90
23124;DHT22;11731;48.592;8.858;2022-10-18T05:48:14;14.80;99.90
23124;DHT22;11731;48.592;8.858;2022-10-18T05:50:41;15.00;99.90
23124;DHT22;11731;48.592;8.858;2022-10-18T05:53:08;15.00;99.90
23124;DHT22;11731;48.592;8.858;2022-10-18T05:55:35;15.10;99.90
23124;DHT22;11731;48.592;8.858;2022-10-18T05:58:02;15.20;99.90
23124;DHT22;11731;48.592;8.858;2022-10-18T06:00:31;15.30;99.90
23124;DHT22;11731;48.592;8.858;2022-10-18T06:02:58;15.20;99.90
23124;DHT22;11731;48.592;8.858;2022-10-18T06:05:24;15.10;99.90
23124;DHT22;11731;48.592;8.858;2022-10-18T06:07:51;14.90;99.90
23124;DHT22;11731;48.592;8.858;2022-10-18T06:10:18;14.70;99.90
23124;DHT22;11731;48.592;8.858;2022-10-18T06:12:45;14.80;99.90
23124;DHT22;11731;48.592;8.858;2022-10-18T06:15:12;15.00;99.90
23124;DHT22;11731;48.592;8.858;2022-10-18T06:17:40;15.00;99.90
23124;DHT22;11731;48.592;8.858;2022-10-18T06:20:08;14.80;99.90
23124;DHT22;11731;48.592;8.858;2022-10-18T06:22:35;14.60;99.90
23124;DHT22;11731;48.592;8.858;2022-10-18T06:25:02;14.70;99.90
23124;DHT22;11731;48.592;8.858;2022-10-18T06:27:29;15.10;99.90
23124;DHT22;11731;48.592;8.858;2022-10-18T06:29:57;15.30;99.90
23124;DHT22;11731;48.592;8.858;2022-10-18T06:32:23;15.50;99.90
23124;DHT22;11731;48.592;8.858;2022-10-18T06:34:52;15.70;99.90
23124;DHT22;11731;48.592;8.858;2022-10-18T06:37:18;15.70;99.90
23124;DHT22;11731;48.592;8.858;2022-10-18T06:39:45;15.80;99.90
23124;DHT22;11731;48.592;8.858;2022-10-18T06:42:12;16.00;99.90
23124;DHT22;11731;48.592;8.858;2022-10-18T06:44:39;15.80;99.90
23124;DHT22;11731;48.592;8.858;2022-10-18T06:47:06;15.70;99.90
23124;DHT22;11731;48.592;8.858;2022-10-18T06:49:33;15.90;99.90
23124;DHT22;11731;48.592;8.858;2022-10-18T06:52:01;15.90;99.90
23124;DHT22;11731;48.592;8.858;2022-10-18T06:54:28;15.80;99.90
23124;DHT22;11731;48.592;8.858;2022-10-18T06:56:55;16.00;99.90
23124;DHT22;11731;48.592;8.858;2022-10-18T06:59:23;16.00;99.90
23124;DHT22;11731;48.592;8.858;2022-10-18T07:01:50;16.00;99.90
23124;DHT22;11731;48.592;8.858;2022-10-18T07:04:17;16.20;99.90
23124;DHT22;11731;48.592;8.858;2022-10-18T07:06:43;16.40;99.90
23124;DHT22;11731;48.592;8.858;2022-10-18T07:09:12;16.50;99.90
23124;DHT22;11731;48.592;8.858;2022-10-18T07:11:39;16.40;99.90
23124;DHT22;11731;48.592;8.858;2022-10-18T07:14:05;16.40;99.90
23124;DHT22;11731;48.592;8.858;2022-10-18T07:16:33;16.40;99.90
23124;DHT22;11731;48.592;8.858;2022-10-18T07:19:02;16.50;99.90
23124;DHT22;11731;48.592;8.858;2022-10-18T07:21:43;16.70;99.90
23124;DHT22;11731;48.592;8.858;2022-10-18T07:24:11;16.70;99.90
23124;DHT22;11731;48.592;8.858;2022-10-18T07:26:38;16.80;99.90
23124;DHT22;11731;48.592;8.858;2022-10-18T07:29:08;16.60;99.90
23124;DHT22;11731;48.592;8.858;2022-10-18T07:31:36;16.40;99.90
23124;DHT22;11731;48.592;8.858;2022-10-18T07:34:04;16.40;99.90
23124;DHT22;11731;48.592;8.858;2022-10-18T07:36:31;16.30;99.90
23124;DHT22;11731;48.592;8.858;2022-10-18T07:38:58;16.30;99.90
23124;DHT22;11731;48.592;8.858;2022-10-18T07:41:26;16.50;99.90
23124;DHT22;11731;48.592;8.858;2022-10-18T07:43:55;16.50;99.90
23124;DHT22;11731;48.592;8.858;2022-10-18T07:46:34;16.90;99.90
23124;DHT22;11731;48.592;8.858;2022-10-18T07:49:01;17.30;99.90
23124;DHT22;11731;48.592;8.858;2022-10-18T07:51:28;17.50;99.90
23124;DHT22;11731;48.592;8.858;2022-10-18T07:53:57;17.90;99.90
23124;DHT22;11731;48.592;8.858;2022-10-18T07:56:25;18.10;99.90
23124;DHT22;11731;48.592;8.858;2022-10-18T07:58:54;18.30;99.90
23124;DHT22;11731;48.592;8.858;2022-10-18T08:01:22;18.50;99.90
23124;DHT22;11731;48.592;8.858;2022-10-18T08:03:55;18.50;99.90
23124;DHT22;11731;48.592;8.858;2022-10-18T08:06:27;18.50;99.90
23124;DHT22;11731;48.592;8.858;2022-10-18T08:08:54;18.70;99.90
23124;DHT22;11731;48.592;8.858;2022-10-18T08:11:24;18.80;99.90
23124;DHT22;11731;48.592;8.858;2022-10-18T08:13:54;19.00;99.90
23124;DHT22;11731;48.592;8.858;2022-10-18T08:16:23;19.20;99.90
23124;DHT22;11731;48.592;8.858;2022-10-18T08:18:52;19.60;99.90
23124;DHT22;11731;48.592;8.858;2022-10-18T08:21:20;19.30;99.90
23124;DHT22;11731;48.592;8.858;2022-10-18T08:23:48;19.50;99.90
23124;DHT22;11731;48.592;8.858;2022-10-18T08:26:16;19.60;99.90
23124;DHT22;11731;48.592;8.858;2022-10-18T08:28:44;19.60;99.90
23124;DHT22;11731;48.592;8.858;2022-10-18T08:31:18;19.60;99.90
23124;DHT22;11731;48.592;8.858;2022-10-18T08:33:45;19.60;99.90
23124;DHT22;11731;48.592;8.858;2022-10-18T08:36:14;19.60;99.90
23124;DHT22;11731;48.592;8.858;2022-10-18T08:38:42;19.60;99.90
23124;DHT22;11731;48.592;8.858;2022-10-18T08:41:27;19.60;99.90
23124;DHT22;11731;48.592;8.858;2022-10-18T08:44:04;19.50;99.90
23124;DHT22;11731;48.592;8.858;2022-10-18T08:46:34;19.70;99.90
23124;DHT22;11731;48.592;8.858;2022-10-18T08:49:03;19.50;99.90
23124;DHT22;11731;48.592;8.858;2022-10-18T08:51:36;19.60;99.90
23124;DHT22;11731;48.592;8.858;2022-10-18T08:54:09;20.00;99.90
23124;DHT22;11731;48.592;8.858;2022-10-18T08:56:38;20.10;99.90
23124;DHT22;11731;48.592;8.858;2022-10-18T08:59:09;20.20;99.90
23124;DHT22;11731;48.592;8.858;2022-10-18T09:01:42;20.40;99.90
23124;DHT22;11731;48.592;8.858;2022-10-18T09:04:31;20.80;99.90
23124;DHT22;11731;48.592;8.858;2022-10-18T09:07:32;21.10;99.90
23124;DHT22;11731;48.592;8.858;2022-10-18T09:10:05;21.30;99.90
23124;DHT22;11731;48.592;8.858;2022-10-18T09:12:59;21.50;99.90
23124;DHT22;11731;48.592;8.858;2022-10-18T09:15:34;21.70;99.90
23124;DHT22;11731;48.592;8.858;2022-10-18T09:18:22;21.90;99.90
23124;DHT22;11731;48.592;8.858;2022-10-18T09:20:55;21.90;99.90
23124;DHT22;11731;48.592;8.858;2022-10-18T09:23:30;21.80;99.90
23124;DHT22;11731;48.592;8.858;2022-10-18T09:26:04;21.90;99.90
23124;DHT22;11731;48.592;8.858;2022-10-18T09:28:40;22.00;99.90
23124;DHT22;11731;48.592;8.858;2022-10-18T09:31:14;21.90;99.90
23124;DHT22;11731;48.592;8.858;2022-10-18T09:33:51;21.90;99.90
23124;DHT22;11731;48.592;8.858;2022-10-18T09:36:21;22.00;99.90
23124;DHT22;11731;48.592;8.858;2022-10-18T09:38:51;22.00;99.90
23124;DHT22;11731;48.592;8.858;2022-10-18T09:41:22;22.00;99.90
23124;DHT22;11731;48.592;8.858;2022-10-18T09:43:53;22.10;99.90
23124;DHT22;11731;48.592;8.858;2022-10-18T09:46:25;22.30;99.90
23124;DHT22;11731;48.592;8.858;2022-10-18T09:48:57;22.30;99.90
23124;DHT22;11731;48.592;8.858;2022-10-18T09:51:46;22.40;99.90
23124;DHT22;11731;48.592;8.858;2022-10-18T09:54:30;22.50;99.90
23124;DHT22;11731;48.592;8.858;2022-10-18T09:57:08;22.50;99.90
23124;DHT22;11731;48.592;8.858;2022-10-18T09:59:40;22.50;99.90
23124;DHT22;11731;48.592;8.858;2022-10-18T10:02:12;22.50;99.90
23124;DHT22;11731;48.592;8.858;2022-10-18T10:04:43;22.50;99.90
23124;DHT22;11731;48.592;8.858;2022-10-18T10:07:13;22.50;99.90
23124;DHT22;11731;48.592;8.858;2022-10-18T10:09:43;22.60;99.90
23124;DHT22;11731;48.592;8.858;2022-10-18T10:12:26;22.80;99.90
23124;DHT22;11731;48.592;8.858;2022-10-18T10:15:15;23.00;99.90
23124;DHT22;11731;48.592;8.858;2022-10-18T10:17:44;23.10;99.90
23124;DHT22;11731;48.592;8.858;2022-10-18T10:20:19;23.30;99.90
23124;DHT22;11731;48.592;8.858;2022-10-18T10:23:04;23.60;99.90
23124;DHT22;11731;48.592;8.858;2022-10-18T10:25:33;23.30;99.90
23124;DHT22;11731;48.592;8.858;2022-10-18T10:28:04;23.20;99.90
23124;DHT22;11731;48.592;8.858;2022-10-18T10:30:35;23.50;99.90
23124;DHT22;11731;48.592;8.858;2022-10-18T10:33:31;23.50;99.90
23124;DHT22;11731;48.592;8.858;2022-10-18T10:36:02;23.70;99.90
23124;DHT22;11731;48.592;8.858;2022-10-18T10:38:30;23.50;99.90
23124;DHT22;11731;48.592;8.858;2022-10-18T10:40:58;23.30;99.90
23124;DHT22;11731;48.592;8.858;2022-10-18T10:43:26;23.30;99.90
23124;DHT22;11731;48.592;8.858;2022-10-18T10:45:58;23.10;99.90
23124;DHT22;11731;48.592;8.858;2022-10-18T10:48:26;23.10;99.90
23124;DHT22;11731;48.592;8.858;2022-10-18T10:50:56;23.30;99.90
23124;DHT22;11731;48.592;8.858;2022-10-18T10:53:33;23.00;99.90
23124;DHT22;11731;48.592;8.858;2022-10-18T10:56:01;22.70;99.90
23124;DHT22;11731;48.592;8.858;2022-10-18T10:58:34;22.90;99.90
23124;DHT22;11731;48.592;8.858;2022-10-18T11:01:26;22.90;99.90
23124;DHT22;11731;48.592;8.858;2022-10-18T11:04:02;22.90;99.90
23124;DHT22;11731;48.592;8.858;2022-10-18T11:07:01;23.00;99.90
23124;DHT22;11731;48.592;8.858;2022-10-18T11:09:43;23.00;99.90
23124;DHT22;11731;48.592;8.858;2022-10-18T11:12:48;23.10;99.90
23124;DHT22;11731;48.592;8.858;2022-10-18T11:15:21;23.30;99.90
23124;DHT22;11731;48.592;8.858;2022-10-18T11:18:01;22.90;99.90
23124;DHT22;11731;48.592;8.858;2022-10-18T11:20:41;22.70;99.90
23124;DHT22;11731;48.592;8.858;2022-10-18T11:23:10;22.30;99.90
23124;DHT22;11731;48.592;8.858;2022-10-18T11:26:10;22.20;99.90
23124;DHT22;11731;48.592;8.858;2022-10-18T11:28:54;22.30;99.90
23124;DHT22;11731;48.592;8.858;2022-10-18T11:31:29;22.30;99.90
23124;DHT22;11731;48.592;8.858;2022-10-18T11:34:12;22.40;99.90
23124;DHT22;11731;48.592;8.858;2022-10-18T11:36:50;22.40;99.90
23124;DHT22;11731;48.592;8.858;2022-10-18T11:39:24;22.30;99.90
23124;DHT22;11731;48.592;8.858;2022-10-18T11:42:04;22.50;99.90
23124;DHT22;11731;48.592;8.858;2022-10-18T11:44:52;22.70;99.50
23124;DHT22;11731;48.592;8.858;2022-10-18T11:47:32;22.40;99.90
23124;DHT22;11731;48.592;8.858;2022-10-18T11:50:10;22.50;99.90
23124;DHT22;11731;48.592;8.858;2022-10-18T11:52:43;22.50;99.90
23124;DHT22;11731;48.592;8.858;2022-10-18T11:55:29;22.50;99.90
23124;DHT22;11731;48.592;8.858;2022-10-18T11:58:03;22.70;99.90
23124;DHT22;11731;48.592;8.858;2022-10-18T12:00:41;22.60;99.80
23124;DHT22;11731;48.592;8.858;2022-10-18T12:03:28;22.40;99.90
23124;DHT22;11731;48.592;8.858;2022-10-18T12:06:02;22.60;99.90
23124;DHT22;11731;48.592;8.858;2022-10-18T12:08:32;22.70;99.90
23124;DHT22;11731;48.592;8.858;2022-10-18T12:11:05;22.70;99.90
23124;DHT22;11731;48.592;8.858;2022-10-18T12:13:38;22.80;99.80
23124;DHT22;11731;48.592;8.858;2022-10-18T12:16:09;22.80;99.90
23124;DHT22;11731;48.592;8.858;2022-10-18T12:18:56;22.90;99.40
23124;DHT22;11731;48.592;8.858;2022-10-18T12:21:26;23.00;99.20
23124;DHT22;11731;48.592;8.858;2022-10-18T12:23:56;23.30;99.10
23124;DHT22;11731;48.592;8.858;2022-10-18T12:26:24;23.40;99.40
23124;DHT22;11731;48.592;8.858;2022-10-18T12:29:05;23.40;99.30
23124;DHT22;11731;48.592;8.858;2022-10-18T12:31:38;23.60;99.30
23124;DHT22;11731;48.592;8.858;2022-10-18T12:34:23;23.90;98.80
23124;DHT22;11731;48.592;8.858;2022-10-18T12:37:04;23.80;99.10
23124;DHT22;11731;48.592;8.858;2022-10-18T12:39:37;23.50;99.40
23124;DHT22;11731;48.592;8.858;2022-10-18T12:42:05;23.20;99.90
23124;DHT22;11731;48.592;8.858;2022-10-18T12:44:42;23.00;99.90
23124;DHT22;11731;48.592;8.858;2022-10-18T12:47:20;23.00;99.80
23124;DHT22;11731;48.592;8.858;2022-10-18T12:49:55;22.70;99.90
23124;DHT22;11731;48.592;8.858;2022-10-18T12:52:25;22.70;99.90
23124;DHT22;11731;48.592;8.858;2022-10-18T12:55:26;22.70;99.90
23124;DHT22;11731;48.592;8.858;2022-10-18T12:58:21;22.70;99.90
23124;DHT22;11731;48.592;8.858;2022-10-18T13:01:14;22.30;99.90
23124;DHT22;11731;48.592;8.858;2022-10-18T13:03:56;22.20;99.90
23124;DHT22;11731;48.592;8.858;2022-10-18T13:06:24;22.50;99.90
23124;DHT22;11731;48.592;8.858;2022-10-18T13:09:14;22.40;99.90
23124;DHT22;11731;48.592;8.858;2022-10-18T13:12:35;22.50;99.90
23124;DHT22;11731;48.592;8.858;2022-10-18T13:14:59;22.90;99.90
23124;DHT22;11731;48.592;8.858;2022-10-18T13:17:33;22.80;99.90
23124;DHT22;11731;48.592;8.858;2022-10-18T13:20:21;22.60;99.90
23124;DHT22;11731;48.592;8.858;2022-10-18T13:23:00;22.70;99.90
23124;DHT22;11731;48.592;8.858;2022-10-18T13:25:33;22.70;99.90
23124;DHT22;11731;48.592;8.858;2022-10-18T13:28:21;22.20;99.90
23124;DHT22;11731;48.592;8.858;2022-10-18T13:30:55;22.10;99.90
23124;DHT22;11731;48.592;8.858;2022-10-18T13:33:35;22.40;99.90
23124;DHT22;11731;48.592;8.858;2022-10-18T13:36:04;22.50;99.90
23124;DHT22;11731;48.592;8.858;2022-10-18T13:38:46;22.50;99.90
23124;DHT22;11731;48.592;8.858;2022-10-18T13:41:16;22.30;99.90
23124;DHT22;11731;48.592;8.858;2022-10-18T13:44:08;22.30;99.90
23124;DHT22;11731;48.592;8.858;2022-10-18T13:49:30;22.70;99.90
23124;DHT22;11731;48.592;8.858;2022-10-18T13:55:07;22.70;99.90
23124;DHT22;11731;48.592;8.858;2022-10-18T13:57:49;22.80;99.90
23124;DHT22;11731;48.592;8.858;2022-10-18T14:00:33;22.70;99.90
23124;DHT22;11731;48.592;8.858;2022-10-18T14:06:04;23.00;99.90
23124;DHT22;11731;48.592;8.858;2022-10-18T14:08:34;23.10;99.90
23124;DHT22;11731;48.592;8.858;2022-10-18T14:11:05;23.40;99.90
23124;DHT22;11731;48.592;8.858;2022-10-18T14:13:37;22.80;99.90
23124;DHT22;11731;48.592;8.858;2022-10-18T14:16:26;22.60;99.90
23124;DHT22;11731;48.592;8.858;2022-10-18T14:19:07;22.80;99.90
23124;DHT22;11731;48.592;8.858;2022-10-18T14:21:40;22.80;99.90
23124;DHT22;11731;48.592;8.858;2022-10-18T14:24:16;23.10;99.90
23124;DHT22;11731;48.592;8.858;2022-10-18T14:26:45;22.90;99.90
23124;DHT22;11731;48.592;8.858;2022-10-18T14:29:17;22.80;99.90
23124;DHT22;11731;48.592;8.858;2022-10-18T14:31:51;22.80;99.90
23124;DHT22;11731;48.592;8.858;2022-10-18T14:34:21;22.80;99.90
23124;DHT22;11731;48.592;8.858;2022-10-18T14:36:57;22.40;99.90
23124;DHT22;11731;48.592;8.858;2022-10-18T14:39:26;22.20;99.90
23124;DHT22;11731;48.592;8.858;2022-10-18T14:41:55;22.30;99.90
23124;DHT22;11731;48.592;8.858;2022-10-18T14:44:25;22.30;99.90
23124;DHT22;11731;48.592;8.858;2022-10-18T14:46:58;22.30;99.90
23124;DHT22;11731;48.592;8.858;2022-10-18T14:49:26;22.50;99.90
23124;DHT22;11731;48.592;8.858;2022-10-18T14:51:55;22.40;99.90
23124;DHT22;11731;48.592;8.858;2022-10-18T14:54:27;22.30;99.90
23124;DHT22;11731;48.592;8.858;2022-10-18T14:56:55;22.20;99.90
23124;DHT22;11731;48.592;8.858;2022-10-18T14:59:24;22.20;99.90
23124;DHT22;11731;48.592;8.858;2022-10-18T15:01:54;22.30;99.90
23124;DHT22;11731;48.592;8.858;2022-10-18T15:04:25;22.40;99.90
23124;DHT22;11731;48.592;8.858;2022-10-18T15:06:58;22.40;99.90
23124;DHT22;11731;48.592;8.858;2022-10-18T15:09:26;22.60;99.90
23124;DHT22;11731;48.592;8.858;2022-10-18T15:11:55;22.60;99.90
23124;DHT22;11731;48.592;8.858;2022-10-18T15:14:28;22.70;99.90
23124;DHT22;11731;48.592;8.858;2022-10-18T15:17:11;22.80;99.90
23124;DHT22;11731;48.592;8.858;2022-10-18T15:19:53;22.50;99.90
23124;DHT22;11731;48.592;8.858;2022-10-18T15:22:23;22.20;99.90
23124;DHT22;11731;48.592;8.858;2022-10-18T15:25:07;22.30;99.90
23124;DHT22;11731;48.592;8.858;2022-10-18T15:27:36;22.30;99.90
23124;DHT22;11731;48.592;8.858;2022-10-18T15:30:05;22.10;99.90
23124;DHT22;11731;48.592;8.858;2022-10-18T15:32:33;22.20;99.90
23124;DHT22;11731;48.592;8.858;2022-10-18T15:35:07;22.30;99.90
23124;DHT22;11731;48.592;8.858;2022-10-18T15:37:41;22.30;99.90
23124;DHT22;11731;48.592;8.858;2022-10-18T15:40:31;22.30;99.90
23124;DHT22;11731;48.592;8.858;2022-10-18T15:43:00;21.70;99.90
23124;DHT22;11731;48.592;8.858;2022-10-18T15:45:35;21.40;99.90
23124;DHT22;11731;48.592;8.858;2022-10-18T15:48:19;21.20;99.90
23124;DHT22;11731;48.592;8.858;2022-10-18T15:50:48;21.40;99.90
23124;DHT22;11731;48.592;8.858;2022-10-18T15:53:41;21.60;99.90
23124;DHT22;11731;48.592;8.858;2022-10-18T15:56:27;21.50;99.90
23124;DHT22;11731;48.592;8.858;2022-10-18T15:58:56;21.30;99.90
23124;DHT22;11731;48.592;8.858;2022-10-18T16:01:31;21.40;99.90
23124;DHT22;11731;48.592;8.858;2022-10-18T16:04:00;21.60;99.90
23124;DHT22;11731;48.592;8.858;2022-10-18T16:06:27;21.50;99.90
23124;DHT22;11731;48.592;8.858;2022-10-18T16:08:54;21.40;99.90
23124;DHT22;11731;48.592;8.858;2022-10-18T16:11:24;21.40;99.90
23124;DHT22;11731;48.592;8.858;2022-10-18T16:13:53;21.40;99.90